Phoenix, Arizona
Traffic Map
Current Weather Conditions
Phoenix, Arizona
Broken Clouds
Broken Clouds
76°
Feels Like: 76°
Wind Chill: 76° Ceiling: 20000
Heat Index: 76° Visibility: 10mi
Dew Point: 23° Wind: 26mph
Humidity: 14% Direction: 270° (W)
Pressure: 29.77in Gusts: 35mph
Raw Report DataKPHX 192151Z 27023G30KT 10SM BKN200 BKN250 24/M05 A2977 RMK AO2 PK WND 27032/2117 SLP070 T02441050
Traffic Incident Summary
Active as of:
Severity:
Category:
InformationThere was an issue retrieving the traffic information for this location. Please try a different location or try again shortly.
Advertisements